Login

rdeluigi
2 activity; - Last training unit 01/11/2014
01/11/2014 Show to everybody corticiasca-crocione-condra 27.42 1044 02:43:16 10.08 Km\h Scott spark 950
26/10/2014 Show to everybody Monti di rovederdo variante 5.66 227 00:38:21 8.86 Km\h Scott spark 950
19/10/2014 Show to everybody Giro delle chiese 17.85 479 01:37:38 10.97 Km\h Scott spark 950
16/10/2014 Show to everybody monti di roveredo 7.14 346 00:55:14 7.76 Km\h Scott spark 950
21/09/2014 Show to everybody uina-bernina tappa4 32.07 603 02:20:27 13.7 Km\h Scott spark 950
20/09/2014 Show to everybody uina-bernina tappa2 43.48 1021 04:37:08 9.41 Km\h Scott spark 950
20/09/2014 Show to everybody uina-bernina tappa3a 34.69 65 01:39:41 20.88 Km\h Scott spark 950
19/09/2014 Show to everybody uina-bernina tappa3b 52.14 1640 05:35:45 9.32 Km\h Scott spark 950
18/09/2014 Show to everybody uina-bernina tappa1 0.14 0 00:00:50 10.44 Km\h Scott spark 950
18/09/2014 Show to everybody uina-bernina tappa1 scuol-uina 29.93 463 01:52:57 15.9 Km\h Scott spark 950
12/09/2014 Show to everybody tessrete-taverne 12.78 368 01:06:43 11.49 Km\h Scott spark 950
07/09/2014 Show to everybody arbostora 33.61 804 02:49:35 11.89 Km\h Scott spark 950
06/09/2014 Show to everybody tesserete-corticiasca-condra 27.62 1030 02:35:23 10.66 Km\h Scott spark 950
27/08/2014 Show to everybody Tesserete-Gola di lago-Condra 13.16 479 01:23:52 9.41 Km\h Scott spark 950
23/08/2014 Show to everybody tesserte-piandanazzo 31.74 1156 03:26:33 9.22 Km\h Scott spark 950
21/08/2014 Show to everybody nante-sasso boggia-ravina 10.49 601 01:10:43 8.9 Km\h Scott spark 950
18/08/2014 Show to everybody tesserete-monti di roveredo 7.33 351 01:00:25 7.28 Km\h Scott spark 950
16/08/2014 Show to everybody tesserete-monti di roveredo 7.05 346 00:56:08 7.54 Km\h Scott spark 950
14/08/2014 Show to everybody xc-redde 7.38 155 00:44:22 9.98 Km\h Scott spark 950
07/08/2014 Show to everybody tesserete-tamaro-arosio-cademario-agno 42.52 1605 03:51:11 11.04 Km\h Scott spark 950
03/08/2014 Show to everybody gola-monti di roveredo 15.44 560 01:40:49 9.19 Km\h Scott spark 950
30/07/2014 Show to everybody tesserete-monti di roveredo 12.75 488 01:48:27 7.06 Km\h Scott spark 950
23/07/2014 Show to everybody tesserete-crocione 19.78 849 02:22:50 8.31 Km\h Scott spark 950
22/07/2014 Show to everybody tesserete-crocione 20.86 1003 02:39:38 7.84 Km\h Scott spark 950
18/07/2014 Show to everybody tesserete-bar-sanlucio 41.77 1236 03:41:03 11.34 Km\h Scott spark 950
14/07/2014 Show to everybody tesserete-alpe-bolla-creda 28.09 995 02:52:05 9.79 Km\h Scott spark 950
06/07/2014 Show to everybody tesserete-alpe-bolla 27.86 998 02:38:26 10.55 Km\h Scott spark 950
15/06/2014 Show to everybody tesserete-polariolo 8.42 341 00:56:26 8.95 Km\h Scott spark 950
14/06/2014 Show to everybody Mte Bar-Sanlucio-Pairolo-murio 39.57 1449 03:50:05 10.32 Km\h Scott spark 950
07/06/2014 Show to everybody tesserete-monti di rovereto 7.73 341 00:54:06 8.57 Km\h Scott spark 950
01/06/2014 Show to everybody tesserete-maglio-certara-cimadera-pairoo-murio 21.22 925 01:58:59 10.7 Km\h Scott spark 950
29/05/2014 Show to everybody tesserete-percorso mondiali 12.32 515 01:17:12 9.58 Km\h Scott spark 950
27/05/2014 Show to everybody tesserete-bigorio-gola-monti roveredo 15.69 611 01:34:33 9.96 Km\h Scott spark 950
25/05/2014 Show to everybody monti di rovereto 7.12 349 00:48:26 8.82 Km\h Scott spark 950
18/05/2014 Show to everybody Duathlon Zofingen 16.47 124 00:33:35 29.42 Km\h Scott spark 950
17/05/2014 Show to everybody corso tecnico 10.78 453 00:58:29 11.06 Km\h Scott spark 950
13/05/2014 Show to everybody giro delle chiese 19 474 01:41:01 11.28 Km\h Scott spark 950
11/05/2014 Show to everybody manno ceneri 30.59 262 01:53:48 16.13 Km\h Scott spark 950
04/05/2014 Show to everybody Training 22 7.91 350 01:03:54 7.43 Km\h Scott spark 950
03/05/2014 Show to everybody Tesserete monti di roveredo 6.81 348 00:52:10 7.84 Km\h Scott spark 950
01/05/2014 Show to everybody Tesserete-bigorio-gola di lago 10.38 554 01:29:08 6.98 Km\h Scott spark 950
26/04/2014 Show to everybody Tesserete redde szeno 13.92 396 01:21:31 10.25 Km\h Scott spark 950
25/04/2014 Show to everybody Tesserete-montidiroveredo 7.14 345 00:49:55 8.58 Km\h Scott spark 950
22/04/2014 Show to everybody redde monti di roveredo 14.49 493 01:48:17 8.03 Km\h Scott spark 950
19/04/2014 Show to everybody Tesserete xc redde bettagno 12.25 247 00:59:51 12.28 Km\h Scott spark 950
12/04/2014 Show to everybody Tesserete s zeno tesserete 13.27 400 01:15:10 10.59 Km\h Scott spark 950
06/04/2014 Show to everybody Tesserete-maglio-monti di roveredo 27.86 883 02:28:59 11.22 Km\h Scott spark 950
02/04/2014 Show to everybody Training zurigo 3.85 108 00:32:20 7.14 Km\h Scott spark 950
30/03/2014 Show to everybody Tesserete-certara-cimadera 9.4 422 00:50:39 11.14 Km\h Scott spark 950
29/03/2014 Show to everybody xc redde 7.55 124 00:36:47 12.32 Km\h Scott spark 950
28/03/2014 Show to everybody tesserete- monti di roveredo 7.32 354 00:53:25 8.22 Km\h Scott spark 950
21/03/2014 Show to everybody Tesserete-monti di roveredo 6.27 351 00:46:05 8.17 Km\h Scott spark 950
19/03/2014 Show to everybody Tesserete-monti di roveredo 6.76 363 00:46:51 8.65 Km\h Scott spark 950
17/03/2014 Show to everybody Tesserete-monti di roveredo 6.64 349 00:52:37 7.57 Km\h Scott spark 950
16/03/2014 Show to everybody Tesserete gola di lago bigorio xc redde 22.01 656 02:24:00 9.17 Km\h Scott spark 950
12/03/2014 Show to everybody Tesserete-monti di roveredo 6.72 352 00:52:00 7.75 Km\h Scott spark 950
09/03/2014 Show to everybody Tesserete-giro 8.05 501 00:57:02 8.47 Km\h Scott spark 950
23/02/2014 Show to everybody redde-s zeno-tesserete 13.75 403 01:37:41 8.45 Km\h Scott spark 950
09/02/2014 Show to everybody xc redde 6.57 109 00:34:50 11.31 Km\h Scott spark 950
26/01/2014 Show to everybody bigorio-gola di lago 7.04 356 00:51:10 8.25 Km\h
25/01/2014 Show to everybody xc redde 7.56 123 00:40:00 11.34 Km\h
Training units 0
Kilometers 0 Km
Vertical gain 0 mt
Hours of riding 00:00:00
Average speed 0 Km/h
average HR 142
Points 122
Live Tracking »

Scott spark 950 99:09:22 1018.58 Km

 
If you stop following this users you will not be able to compare your trainings with his

Now you follow this users and you can compare your trainings


MTB-Forum.it | 2012-2019 Training Camp v.1.6 rev 05